Time;durP1;ratioP1;P1;durP2;ratioP2;P2;SDS_P1;SDS_P2;PMS_P1;PMS_P2;Temp;Humidity;BMP_temperature;BMP_pressure;BME280_temperature;BME280_humidity;BME280_pressure;Samples;Min_cycle;Max_cycle;Signal;HPM_P1;HPM_P2
2022/10/22 00:01:26;;;;;;;8.33;3.50;;;;;;;12.63;100.00;100809.38;5254432;28;20035;-72
2022/10/22 00:03:57;;;;;;;7.70;3.53;;;;;;;12.86;100.00;100814.81;5254063;28;20020;-73
2022/10/22 00:06:28;;;;;;;8.23;4.13;;;;;;;12.75;100.00;100799.78;5254884;28;20017;-74
2022/10/22 00:09:00;;;;;;;6.53;3.53;;;;;;;12.89;100.00;100810.19;5251722;28;20041;-72
2022/10/22 00:11:31;;;;;;;11.13;4.60;;;;;;;12.79;100.00;100809.97;5254136;28;20036;-74
2022/10/22 00:14:03;;;;;;;9.13;4.20;;;;;;;12.78;100.00;100813.53;5253869;28;20025;-73
2022/10/22 00:16:34;;;;;;;6.60;3.47;;;;;;;12.71;100.00;100801.78;5258616;28;20021;-73
2022/10/22 00:19:07;;;;;;;9.13;4.13;;;;;;;12.68;100.00;100807.25;5257408;28;20025;-72
2022/10/22 00:21:39;;;;;;;9.47;4.23;;;;;;;12.58;100.00;100799.19;5271848;28;20025;-72
2022/10/22 00:24:10;;;;;;;16.17;4.40;;;;;;;12.55;100.00;100802.84;5230587;28;20101;-74
2022/10/22 00:26:41;;;;;;;14.03;4.07;;;;;;;12.65;100.00;100804.84;5254243;28;20492;-72
2022/10/22 00:29:13;;;;;;;6.60;3.33;;;;;;;12.52;100.00;100807.47;5253943;28;20446;-72
2022/10/22 00:31:48;;;;;;;10.33;3.50;;;;;;;12.56;100.00;100798.44;5254826;28;20025;-73
2022/10/22 00:34:21;;;;;;;11.53;3.77;;;;;;;12.55;100.00;100800.22;5258398;28;20472;-72
2022/10/22 00:36:52;;;;;;;9.97;3.20;;;;;;;12.57;100.00;100805.38;5258154;28;20047;-72
2022/10/22 00:39:25;;;;;;;11.07;3.57;;;;;;;12.66;100.00;100810.00;5257795;28;20376;-73
2022/10/22 00:41:58;;;;;;;7.50;4.37;;;;;;;12.65;100.00;100812.72;5258071;28;20025;-73
2022/10/22 00:45:03;;;;;;;12.67;3.73;;;;;;;12.73;100.00;100818.28;5258062;28;20120;-72
2022/10/22 00:47:55;;;;;;;11.33;3.70;;;;;;;12.79;100.00;100815.22;5237804;28;20033;-73
2022/10/22 00:50:34;;;;;;;8.40;3.60;;;;;;;12.78;100.00;100810.06;5256333;28;20640;-72
2022/10/22 00:53:11;;;;;;;11.97;4.80;;;;;;;12.73;100.00;100810.41;5258181;28;20025;-73
2022/10/22 00:55:45;;;;;;;7.83;3.60;;;;;;;12.74;100.00;100806.81;5256146;28;20033;-73
2022/10/22 00:58:20;;;;;;;12.55;4.15;;;;;;;12.68;100.00;100807.25;5258508;28;20162;-74
2022/10/22 01:00:51;;;;;;;13.53;3.77;;;;;;;12.63;100.00;100798.84;5257923;28;20112;-72
2022/10/22 01:03:23;;;;;;;11.83;4.40;;;;;;;12.67;100.00;100810.84;5258049;28;20116;-72
2022/10/22 01:05:57;;;;;;;9.77;4.00;;;;;;;12.60;100.00;100812.22;5257251;28;20055;-73
2022/10/22 01:08:53;;;;;;;10.95;4.55;;;;;;;12.63;100.00;100809.38;5257719;28;20191;-73
2022/10/22 01:11:40;;;;;;;14.07;4.73;;;;;;;12.67;100.00;100810.84;5256614;28;20068;-71
2022/10/22 01:14:34;;;;;;;7.70;4.50;;;;;;;12.65;100.00;100802.22;5282538;23;20067;-73
2022/10/22 01:17:12;;;;;;;8.80;4.27;;;;;;;12.68;100.00;100812.50;5276915;28;20028;-72
2022/10/22 01:20:20;;;;;;;11.97;5.57;;;;;;;12.66;100.00;100817.03;5276877;28;20047;-72
2022/10/22 01:23:20;;;;;;;9.03;4.03;;;;;;;12.66;100.00;100810.00;5277079;28;20530;-73
2022/10/22 01:26:33;;;;;;;14.10;5.00;;;;;;;12.59;100.00;100798.22;5255731;28;20029;-71
2022/10/22 01:29:14;;;;;;;12.07;4.93;;;;;;;12.65;100.00;100807.47;5229357;28;20037;-72
2022/10/22 01:31:53;;;;;;;8.77;4.30;;;;;;;12.56;100.00;100804.53;5256534;28;20510;-71
2022/10/22 01:34:26;;;;;;;9.33;4.17;;;;;;;12.62;100.00;100807.69;5256716;28;20021;-72
2022/10/22 01:36:59;;;;;;;15.40;4.57;;;;;;;12.52;100.00;100805.69;5238509;28;20063;-72
2022/10/22 01:39:33;;;;;;;9.63;5.00;;;;;;;12.52;100.00;100802.22;5256755;28;20057;-72
2022/10/22 01:42:05;;;;;;;11.40;4.85;;;;;;;12.61;100.00;100800.75;5276341;28;20024;-72
2022/10/22 01:44:36;;;;;;;8.23;4.73;;;;;;;12.62;100.00;100797.19;5276623;28;20043;-75
2022/10/22 01:47:29;;;;;;;9.83;5.90;;;;;;;12.59;100.00;100795.59;5268502;28;20079;-71
2022/10/22 01:50:22;;;;;;;13.27;4.37;;;;;;;12.55;100.00;100797.59;5276568;28;20437;-71
2022/10/22 01:53:16;;;;;;;10.20;5.13;;;;;;;12.57;100.00;100795.69;5276768;28;20070;-72
2022/10/22 01:56:03;;;;;;;9.75;4.90;;;;;;;12.46;100.00;100787.75;5275511;28;20028;-72
2022/10/22 01:58:44;;;;;;;11.33;4.70;;;;;;;12.53;100.00;100799.47;5276226;28;20058;-71
2022/10/22 02:01:23;;;;;;;11.37;4.67;;;;;;;12.45;100.00;100801.81;5276702;28;20093;-74
2022/10/22 02:04:02;;;;;;;11.97;5.37;;;;;;;12.43;100.00;100798.44;5276473;28;20039;-72
2022/10/22 02:06:35;;;;;;;11.07;5.10;;;;;;;12.33;100.00;100809.59;5276774;28;20051;-72
2022/10/22 02:09:08;;;;;;;12.83;5.30;;;;;;;12.41;100.00;100808.22;5275765;28;20391;-72
2022/10/22 02:11:41;;;;;;;12.23;4.80;;;;;;;12.31;100.00;100808.00;5276336;28;20028;-71
2022/10/22 02:14:14;;;;;;;9.27;4.80;;;;;;;12.37;100.00;100804.97;5275968;28;20153;-75
2022/10/22 02:16:48;;;;;;;12.33;5.53;;;;;;;12.44;100.00;100810.63;5276112;28;20509;-72
2022/10/22 02:19:56;;;;;;;16.23;5.45;;;;;;;12.39;100.00;100807.47;5258636;28;20399;-72
2022/10/22 02:22:28;;;;;;;10.83;5.70;;;;;;;12.31;100.00;100803.59;5276132;28;20029;-73
2022/10/22 02:25:00;;;;;;;13.27;5.27;;;;;;;12.23;100.00;100798.03;5275191;28;20078;-71
2022/10/22 02:27:44;;;;;;;19.20;5.87;;;;;;;12.38;100.00;100811.03;5276169;28;20279;-73
2022/10/22 02:30:21;;;;;;;10.75;4.95;;;;;;;12.34;100.00;100800.75;5259775;28;20150;-74
2022/10/22 02:33:17;;;;;;;10.40;4.90;;;;;;;12.35;100.00;100791.09;5278258;28;20062;-73
2022/10/22 02:35:50;;;;;;;20.00;5.80;;;;;;;12.22;100.00;100791.94;5276179;28;20032;-72
2022/10/22 02:38:24;;;;;;;20.40;5.40;;;;;;;12.21;100.00;100805.16;5275703;28;20062;-72
2022/10/22 02:40:55;;;;;;;8.38;4.60;;;;;;;12.22;100.00;100799.81;5274541;28;20475;-74
2022/10/22 02:43:28;;;;;;;13.93;5.43;;;;;;;12.20;100.00;100806.13;5275978;28;20033;-71
2022/10/22 02:45:59;;;;;;;16.10;5.00;;;;;;;12.21;100.00;100807.78;5275205;28;20483;-72
2022/10/22 02:48:30;;;;;;;15.93;6.90;;;;;;;12.18;100.00;100810.63;5275779;28;20028;-72
2022/10/22 02:51:02;;;;;;;14.43;5.97;;;;;;;12.19;100.00;100812.28;5257858;28;20035;-72
2022/10/22 02:53:34;;;;;;;8.30;4.77;;;;;;;12.06;100.00;100813.09;5273805;28;20114;-72
2022/10/22 02:56:05;;;;;;;14.17;5.37;;;;;;;12.15;100.00;100808.22;5274631;28;20070;-72
2022/10/22 02:58:36;;;;;;;13.53;5.20;;;;;;;12.21;100.00;100820.91;5275142;28;20340;-72
2022/10/22 03:01:08;;;;;;;14.13;5.23;;;;;;;12.06;100.00;100807.84;5275160;28;20028;-73
2022/10/22 03:03:39;;;;;;;13.23;4.80;;;;;;;12.11;100.00;100825.94;5275590;28;20033;-72
2022/10/22 03:06:10;;;;;;;12.73;4.90;;;;;;;12.10;100.00;100814.59;5274444;28;20059;-72
2022/10/22 03:08:41;;;;;;;8.83;4.37;;;;;;;12.09;100.00;100820.81;5274581;28;20401;-72
2022/10/22 03:11:13;;;;;;;9.33;5.07;;;;;;;12.07;100.00;100822.66;5274690;28;20035;-73
2022/10/22 03:13:44;;;;;;;15.07;4.53;;;;;;;12.02;100.00;100822.13;5274067;28;20040;-72
2022/10/22 03:16:15;;;;;;;12.93;4.63;;;;;;;11.94;100.00;100824.38;5275930;28;20035;-73
2022/10/22 03:18:47;;;;;;;11.27;4.30;;;;;;;12.04;100.00;100808.88;5274724;28;20029;-71
2022/10/22 03:21:41;;;;;;;9.40;4.97;;;;;;;12.16;100.00;100828.25;5257070;28;20032;-72
2022/10/22 03:24:16;;;;;;;13.77;4.50;;;;;;;12.08;100.00;100832.19;5273856;28;20490;-76
2022/10/22 03:26:50;;;;;;;8.93;4.50;;;;;;;12.10;100.00;100832.13;5274604;28;20032;-73
2022/10/22 03:29:24;;;;;;;11.38;5.03;;;;;;;11.97;100.00;100826.84;5275388;28;20479;-72
2022/10/22 03:31:56;;;;;;;9.93;4.57;;;;;;;12.02;100.00;100822.13;5275144;28;20111;-72
2022/10/22 03:34:27;;;;;;;16.63;5.00;;;;;;;11.97;100.00;100821.59;5274528;28;20538;-72
2022/10/22 03:37:00;;;;;;;9.57;5.10;;;;;;;12.04;100.00;100830.75;5274953;28;20020;-72
2022/10/22 03:39:34;;;;;;;12.70;5.67;;;;;;;11.94;100.00;100830.50;5274201;28;20025;-72
2022/10/22 03:42:06;;;;;;;13.98;5.22;;;;;;;12.08;100.00;100842.69;5274243;28;20115;-72
2022/10/22 03:44:39;;;;;;;9.73;4.50;;;;;;;12.09;100.00;100844.44;5274812;28;20028;-74
2022/10/22 03:47:10;;;;;;;11.47;4.10;;;;;;;12.13;100.00;100850.28;5274209;28;20033;-72
2022/10/22 03:49:42;;;;;;;13.10;5.40;;;;;;;12.08;100.00;100841.84;5274612;28;20417;-72
2022/10/22 03:52:14;;;;;;;10.93;5.50;;;;;;;12.00;100.00;100854.66;5274107;28;20074;-73
2022/10/22 03:54:45;;;;;;;9.60;4.90;;;;;;;12.07;100.00;100859.41;5254810;28;20025;-72
2022/10/22 03:57:16;;;;;;;15.13;4.80;;;;;;;12.08;100.00;100857.59;5274286;28;20446;-72
2022/10/22 03:59:47;;;;;;;21.43;4.87;;;;;;;12.13;100.00;100859.97;5274075;28;20119;-72
2022/10/22 04:02:19;;;;;;;16.03;4.93;;;;;;;11.97;100.00;100850.47;5273938;28;20035;-73
2022/10/22 04:04:50;;;;;;;12.63;4.83;;;;;;;12.03;100.00;100855.28;5255966;28;20021;-73
2022/10/22 04:07:21;;;;;;;11.13;4.67;;;;;;;12.00;100.00;100854.66;5274988;28;20028;-72
2022/10/22 04:09:53;;;;;;;12.03;4.97;;;;;;;12.06;100.00;100865.56;5254695;28;20028;-72
2022/10/22 04:12:24;;;;;;;13.90;4.47;;;;;;;12.00;100.00;100855.50;5274403;28;20395;-73
2022/10/22 04:14:55;;;;;;;14.00;4.97;;;;;;;11.98;100.00;100857.38;5274209;28;20337;-72
2022/10/22 04:17:33;;;;;;;11.20;4.47;;;;;;;12.03;100.00;100860.53;5274123;28;20493;-72
2022/10/22 04:20:05;;;;;;;10.93;4.37;;;;;;;12.00;100.00;100865.16;5274233;28;20068;-74
2022/10/22 04:22:36;;;;;;;11.13;4.40;;;;;;;11.95;100.00;100862.84;5273904;28;20029;-72
2022/10/22 04:25:08;;;;;;;10.93;3.90;;;;;;;11.93;100.00;100864.72;5272925;28;20499;-72
2022/10/22 04:27:39;;;;;;;12.50;3.87;;;;;;;11.86;100.00;100859.88;5255761;28;20079;-72
2022/10/22 04:30:11;;;;;;;10.70;4.23;;;;;;;11.80;100.00;100860.25;5274114;28;20066;-72
2022/10/22 04:32:42;;;;;;;13.47;4.77;;;;;;;11.96;100.00;100854.84;5273275;28;20012;-74
2022/10/22 04:35:14;;;;;;;10.63;4.23;;;;;;;11.91;100.00;100866.59;5274569;28;20032;-72
2022/10/22 04:37:45;;;;;;;8.40;3.60;;;;;;;11.92;100.00;100860.41;5273386;28;20040;-72
2022/10/22 04:40:16;;;;;;;12.17;4.40;;;;;;;11.85;100.00;100846.84;5272862;28;20426;-74
2022/10/22 04:42:48;;;;;;;19.23;4.53;;;;;;;11.96;100.00;100864.50;5255855;28;20031;-72
2022/10/22 04:45:19;;;;;;;10.73;3.93;;;;;;;11.97;100.00;100855.72;5256177;28;20035;-72
2022/10/22 04:47:50;;;;;;;13.93;4.40;;;;;;;11.96;100.00;100862.72;5274140;28;20029;-72
2022/10/22 04:50:21;;;;;;;12.13;4.07;;;;;;;12.00;100.00;100870.41;5256026;28;20087;-72
2022/10/22 04:52:53;;;;;;;19.60;5.63;;;;;;;11.96;100.00;100865.34;5273609;28;20531;-73
2022/10/22 04:55:24;;;;;;;11.93;4.23;;;;;;;11.90;100.00;100875.41;5254934;28;20490;-72
2022/10/22 04:57:55;;;;;;;12.77;5.13;;;;;;;11.98;100.00;100881.00;5255838;28;20071;-73
2022/10/22 05:00:27;;;;;;;16.70;4.30;;;;;;;11.92;100.00;100879.59;5273801;28;20024;-72
2022/10/22 05:02:58;;;;;;;12.67;4.23;;;;;;;11.89;100.00;100873.72;5273965;28;20385;-72
2022/10/22 05:05:29;;;;;;;18.53;4.67;;;;;;;11.87;100.00;100863.31;5255562;28;20033;-73
2022/10/22 05:08:00;;;;;;;12.97;5.10;;;;;;;11.95;100.00;100876.81;5255944;28;20064;-72
2022/10/22 05:10:32;;;;;;;16.10;5.13;;;;;;;11.94;100.00;100871.63;5273194;28;20037;-72
2022/10/22 05:13:03;;;;;;;16.27;4.37;;;;;;;12.07;100.00;100877.78;5256502;28;20115;-72
2022/10/22 05:15:34;;;;;;;16.30;4.50;;;;;;;12.07;100.00;100882.19;5274722;28;20049;-73
2022/10/22 05:18:05;;;;;;;12.90;4.03;;;;;;;12.09;100.00;100885.59;5276608;28;20038;-73
2022/10/22 05:20:41;;;;;;;17.33;5.30;;;;;;;12.12;100.00;100880.13;5260621;28;20020;-71
2022/10/22 05:23:12;;;;;;;14.47;4.50;;;;;;;12.10;100.00;100880.22;5262381;28;20107;-76
2022/10/22 05:25:43;;;;;;;12.40;5.43;;;;;;;12.17;100.00;100887.69;5279660;28;20489;-72
2022/10/22 05:28:15;;;;;;;13.93;4.40;;;;;;;12.05;100.00;100879.66;5259674;28;20082;-72
2022/10/22 05:30:57;;;;;;;15.27;4.37;;;;;;;12.12;100.00;100874.03;5277307;28;20112;-72
2022/10/22 05:33:31;;;;;;;13.47;4.30;;;;;;;12.16;100.00;100892.13;5259737;28;20585;-73
2022/10/22 05:36:04;;;;;;;22.00;5.70;;;;;;;12.22;100.00;100893.47;5259131;28;20047;-72
2022/10/22 05:38:36;;;;;;;20.73;4.37;;;;;;;12.20;100.00;100884.88;5276112;28;20247;-72
2022/10/22 05:41:09;;;;;;;15.60;4.10;;;;;;;12.20;100.00;100880.44;5277045;28;20035;-73
2022/10/22 05:43:41;;;;;;;15.07;4.30;;;;;;;12.26;100.00;100900.22;5277133;28;20032;-71
2022/10/22 05:46:14;;;;;;;11.57;4.10;;;;;;;12.27;100.00;100896.63;5276460;28;20489;-75
2022/10/22 05:48:54;;;;;;;13.75;4.03;;;;;;;12.30;100.00;100903.50;5276409;28;20403;-74
2022/10/22 05:51:28;;;;;;;19.60;4.50;;;;;;;12.30;100.00;100906.97;5277331;28;20032;-72
2022/10/22 05:54:02;;;;;;;12.95;3.88;;;;;;;12.25;100.00;100901.19;5257827;28;20064;-71
2022/10/22 05:56:35;;;;;;;13.23;3.85;;;;;;;12.25;100.00;100898.56;5276943;28;20029;-72
2022/10/22 05:59:09;;;;;;;19.73;5.40;;;;;;;12.32;100.00;100912.94;5276779;28;20017;-71
2022/10/22 06:01:40;;;;;;;17.47;4.80;;;;;;;12.28;100.00;100916.72;5276353;28;20024;-71
2022/10/22 06:04:12;;;;;;;14.83;4.17;;;;;;;12.29;100.00;100918.38;5277370;28;20520;-74
2022/10/22 06:06:46;;;;;;;17.97;4.30;;;;;;;12.28;100.00;100926.38;5277175;28;20436;-72
2022/10/22 06:09:27;;;;;;;20.42;4.90;;;;;;;12.27;100.00;100922.06;5257305;28;20033;-72
2022/10/22 06:11:59;;;;;;;14.07;4.53;;;;;;;12.20;100.00;100929.53;5276182;28;20030;-73
2022/10/22 06:14:31;;;;;;;16.27;4.93;;;;;;;12.26;100.00;100929.09;5257967;28;20044;-72
2022/10/22 06:17:02;;;;;;;19.63;3.90;;;;;;;12.19;100.00;100940.94;5258483;28;20360;-73
2022/10/22 06:19:34;;;;;;;17.30;4.63;;;;;;;12.17;100.00;100929.69;5258695;28;20039;-73
2022/10/22 06:22:05;;;;;;;14.43;4.07;;;;;;;12.19;100.00;100944.41;5275266;28;20629;-72
2022/10/22 06:24:36;;;;;;;21.43;4.43;;;;;;;12.20;100.00;100945.28;5275052;28;20154;-73
2022/10/22 06:27:08;;;;;;;12.33;4.07;;;;;;;12.17;100.00;100945.44;5275794;28;20218;-72
2022/10/22 06:29:39;;;;;;;14.97;4.40;;;;;;;12.23;100.00;100958.19;5274572;28;20497;-72
2022/10/22 06:32:10;;;;;;;12.40;3.70;;;;;;;12.29;100.00;100967.44;5276326;28;20082;-75
2022/10/22 06:34:42;;;;;;;13.47;3.80;;;;;;;12.25;100.00;100968.59;5275721;28;20040;-72
2022/10/22 06:37:14;;;;;;;13.93;3.97;;;;;;;12.21;100.00;100965.31;5275389;28;20032;-73
2022/10/22 06:39:45;;;;;;;16.70;4.47;;;;;;;12.27;100.00;100972.78;5274764;28;20455;-73
2022/10/22 06:42:16;;;;;;;15.03;3.73;;;;;;;12.09;100.00;100957.31;5275700;28;20030;-73
2022/10/22 06:44:48;;;;;;;14.33;4.90;;;;;;;12.19;100.00;100961.94;5275236;28;20034;-72
2022/10/22 06:47:19;;;;;;;11.90;3.87;;;;;;;12.20;100.00;100971.53;5275305;28;20028;-73
2022/10/22 06:49:50;;;;;;;14.33;4.93;;;;;;;12.10;100.00;100964.25;5275140;28;20029;-73
2022/10/22 06:52:21;;;;;;;12.97;4.17;;;;;;;12.22;100.00;100988.00;5257837;28;20070;-72
2022/10/22 06:54:53;;;;;;;11.30;3.07;;;;;;;12.20;100.00;100982.84;5255784;28;20030;-73
2022/10/22 06:57:24;;;;;;;16.17;4.73;;;;;;;12.26;100.00;100992.13;5275322;28;20060;-73
2022/10/22 06:59:55;;;;;;;15.03;4.10;;;;;;;12.22;100.00;100995.88;5275326;28;20437;-73
2022/10/22 07:02:26;;;;;;;18.97;4.20;;;;;;;12.18;100.00;100995.22;5257377;28;20033;-72
2022/10/22 07:04:58;;;;;;;12.80;3.83;;;;;;;12.28;100.00;101011.25;5256858;28;20017;-74
2022/10/22 07:07:29;;;;;;;28.27;4.03;;;;;;;12.21;100.00;101000.31;5258060;28;20028;-73
2022/10/22 07:10:00;;;;;;;15.53;3.53;;;;;;;12.29;100.00;101023.44;5278457;28;20114;-72
2022/10/22 07:12:32;;;;;;;12.73;4.57;;;;;;;12.27;100.00;101017.44;5274901;28;20119;-72
2022/10/22 07:15:04;;;;;;;12.03;3.17;;;;;;;12.25;100.00;101029.84;5274784;28;20044;-72
2022/10/22 07:17:36;;;;;;;12.53;3.90;;;;;;;12.38;100.00;101032.50;5274417;28;20565;-73
2022/10/22 07:20:07;;;;;;;12.63;3.87;;;;;;;12.41;100.00;101021.78;5256838;28;20028;-74
2022/10/22 07:22:39;;;;;;;17.30;3.60;;;;;;;12.50;100.00;101036.13;5275058;28;20025;-75
2022/10/22 07:25:10;;;;;;;15.53;4.30;;;;;;;12.56;100.00;101035.72;5273376;28;20523;-74
2022/10/22 07:27:41;;;;;;;16.97;3.87;;;;;;;12.58;100.00;101030.38;5275552;28;20036;-74
2022/10/22 07:30:13;;;;;;;15.27;3.40;;;;;;;12.76;100.00;101046.69;5274681;28;20025;-73
2022/10/22 07:32:44;;;;;;;18.70;4.27;;;;;;;12.83;100.00;101047.97;5274963;28;20024;-72
2022/10/22 07:35:15;;;;;;;21.13;3.83;;;;;;;12.90;100.00;101050.19;5274740;28;20020;-73
2022/10/22 07:37:46;;;;;;;18.60;4.90;;;;;;;12.87;100.00;101047.78;5273477;28;20406;-72
2022/10/22 07:40:18;;;;;;;21.80;4.27;;;;;;;12.91;100.00;101054.53;5256410;28;20447;-74
2022/10/22 07:42:49;;;;;;;18.87;4.07;;;;;;;12.94;100.00;101062.19;5275416;28;20028;-74
2022/10/22 07:45:21;;;;;;;15.47;3.90;;;;;;;13.02;100.00;101064.34;5274801;28;20681;-75
2022/10/22 07:47:52;;;;;;;17.43;5.10;;;;;;;12.98;100.00;101055.81;5278779;28;20024;-73
2022/10/22 07:50:23;;;;;;;27.10;5.60;;;;;;;13.11;100.00;101065.50;5274441;28;20037;-72
2022/10/22 07:52:54;;;;;;;17.03;4.10;;;;;;;13.17;100.00;101065.06;5273828;28;20028;-75
2022/10/22 07:55:27;;;;;;;12.83;3.90;;;;;;;13.17;100.00;101054.56;5256148;28;20321;-74
2022/10/22 07:57:58;;;;;;;11.97;2.87;;;;;;;13.35;100.00;101073.53;5274266;28;20032;-73
2022/10/22 08:00:30;;;;;;;16.77;4.37;;;;;;;13.39;100.00;101074.13;5256614;28;20535;-73
2022/10/22 08:03:01;;;;;;;14.43;4.03;;;;;;;13.40;100.00;101075.84;5255705;28;20074;-75
2022/10/22 08:05:32;;;;;;;8.17;3.33;;;;;;;13.47;100.00;101082.38;5256662;28;20553;-74
2022/10/22 08:08:05;;;;;;;10.60;3.43;;;;;;;13.55;100.00;101093.22;5273639;28;20439;-73
2022/10/22 08:10:36;;;;;;;12.07;3.03;;;;;;;13.61;100.00;101080.59;5273918;28;20029;-74
2022/10/22 08:13:08;;;;;;;10.63;3.40;;;;;;;13.67;100.00;101095.94;5274149;28;20035;-74
2022/10/22 08:15:41;;;;;;;14.73;3.23;;;;;;;13.72;100.00;101101.72;5274204;28;20039;-76
2022/10/22 08:18:12;;;;;;;15.17;4.07;;;;;;;13.79;100.00;101095.09;5273549;28;20115;-76
2022/10/22 08:20:44;;;;;;;11.13;3.93;;;;;;;13.87;100.00;101104.25;5273687;28;20099;-73
2022/10/22 08:23:15;;;;;;;8.77;2.60;;;;;;;13.98;100.00;101106.16;5256042;28;20025;-77
2022/10/22 08:25:46;;;;;;;10.47;2.57;;;;;;;14.05;100.00;101106.56;5255134;28;20031;-74
2022/10/22 08:28:18;;;;;;;12.93;2.93;;;;;;;14.15;100.00;101118.13;5274463;28;20047;-74
2022/10/22 08:30:49;;;;;;;21.77;2.97;;;;;;;14.18;100.00;101111.78;5273329;28;20085;-73
2022/10/22 08:33:20;;;;;;;7.50;2.47;;;;;;;14.33;100.00;101117.75;5278015;28;20043;-76
2022/10/22 08:35:52;;;;;;;17.93;3.73;;;;;;;14.47;100.00;101125.50;5275144;28;20040;-75
2022/10/22 08:38:23;;;;;;;12.50;3.00;;;;;;;14.54;100.00;101122.44;5255422;28;20037;-75
2022/10/22 08:41:04;;;;;;;8.37;2.30;;;;;;;14.71;100.00;101124.69;5273853;28;20028;-72
2022/10/22 08:44:01;;;;;;;8.63;2.10;;;;;;;14.80;100.00;101135.50;5274215;28;20426;-74
2022/10/22 08:46:46;;;;;;;11.93;2.40;;;;;;;14.84;100.00;101139.63;5256975;28;20402;-74
2022/10/22 08:49:25;;;;;;;11.27;2.25;;;;;;;14.83;100.00;101138.78;5274797;28;20480;-74
2022/10/22 08:51:57;;;;;;;9.03;1.90;;;;;;;14.96;100.00;101153.69;5257179;28;20742;-73
2022/10/22 08:54:47;;;;;;;10.00;2.00;;;;;;;14.99;100.00;101148.22;5260033;28;20024;-73
2022/10/22 08:57:41;;;;;;;10.63;2.70;;;;;;;15.05;100.00;101152.16;5261570;28;20032;-73
2022/10/22 09:00:23;;;;;;;10.85;2.67;;;;;;;14.97;100.00;101160.66;5278413;28;20025;-75
2022/10/22 09:03:25;;;;;;;13.30;3.17;;;;;;;15.00;100.00;101161.28;5260171;28;20470;-74
2022/10/22 09:06:07;;;;;;;13.13;2.90;;;;;;;15.14;100.00;101162.03;5277285;28;20067;-74
2022/10/22 09:08:42;;;;;;;9.50;2.80;;;;;;;14.98;100.00;101159.69;5277724;28;20024;-75
2022/10/22 09:11:23;;;;;;;10.87;2.20;;;;;;;15.10;100.00;101176.41;5261581;28;20025;-73
2022/10/22 09:13:56;;;;;;;15.70;3.10;;;;;;;15.06;100.00;101173.16;5260360;28;20056;-75
2022/10/22 09:16:36;;;;;;;11.33;3.67;;;;;;;15.10;100.00;101184.31;5278722;28;20071;-73
2022/10/22 09:19:28;;;;;;;18.30;3.23;;;;;;;15.09;100.00;101182.66;5277836;28;20028;-75
2022/10/22 09:22:03;;;;;;;8.93;2.20;;;;;;;14.97;100.00;101181.75;5282001;28;20387;-74
2022/10/22 09:24:36;;;;;;;;;;;;;;;15.18;100.00;101191.69;5259812;28;20020;-73
2022/10/22 09:27:34;;;;;;;9.33;1.90;;;;;;;15.09;100.00;101193.19;5277402;28;19920;-74
2022/10/22 09:30:06;;;;;;;9.97;2.33;;;;;;;14.95;100.00;101195.06;5279299;28;20644;-74
2022/10/22 09:32:37;;;;;;;14.30;2.80;;;;;;;14.96;100.00;101191.47;5286714;28;20539;-73
2022/10/22 09:35:10;;;;;;;7.23;2.33;;;;;;;15.00;100.00;101203.47;5285986;28;20028;-73
2022/10/22 09:37:48;;;;;;;12.10;2.70;;;;;;;15.03;100.00;101207.66;5271437;28;20999;-77
2022/10/22 09:40:19;;;;;;;11.63;2.53;;;;;;;15.03;100.00;101223.50;5282262;28;20378;-73
2022/10/22 09:42:51;;;;;;;7.80;2.00;;;;;;;15.01;100.00;101214.84;5268817;28;20099;-73
2022/10/22 09:45:24;;;;;;;12.67;2.80;;;;;;;15.03;100.00;101206.84;5283555;28;20470;-74
2022/10/22 09:48:11;;;;;;;10.13;3.03;;;;;;;15.10;100.00;101218.59;5283316;28;20056;-74
2022/10/22 09:50:45;;;;;;;11.10;2.40;;;;;;;15.12;100.00;101209.66;5269540;28;20379;-75
2022/10/22 09:53:20;;;;;;;10.00;1.88;;;;;;;15.17;100.00;101219.84;5271082;28;20037;-73
2022/10/22 09:56:05;;;;;;;10.20;2.97;;;;;;;15.19;100.00;101225.84;5287929;28;20120;-73
2022/10/22 09:58:43;;;;;;;;;;;;;;;15.32;100.00;101231.09;5262143;28;20021;-75
2022/10/22 10:01:18;;;;;;;11.37;2.40;;;;;;;15.20;100.00;101238.09;5260500;28;19962;-75
2022/10/22 10:03:49;;;;;;;12.27;2.70;;;;;;;15.20;100.00;101230.16;5278009;28;20032;-74
2022/10/22 10:06:22;;;;;;;7.43;2.20;;;;;;;15.27;100.00;101250.84;5262436;28;20021;-74
2022/10/22 10:08:53;;;;;;;12.80;3.10;;;;;;;15.23;100.00;101259.00;5259905;28;20036;-73
2022/10/22 10:11:45;;;;;;;19.63;4.77;;;;;;;15.24;100.00;101255.38;5287926;28;20040;-74
2022/10/22 10:14:30;;;;;;;12.70;2.60;;;;;;;15.41;100.00;101258.56;5269161;28;20057;-73
2022/10/22 10:17:29;;;;;;;7.73;2.10;;;;;;;15.26;100.00;101243.88;5281804;28;20024;-73
2022/10/22 10:20:20;;;;;;;12.90;2.63;;;;;;;15.45;100.00;101267.94;5255453;28;20041;-74
2022/10/22 10:23:01;;;;;;;10.70;2.50;;;;;;;15.38;100.00;101279.09;5278495;28;20052;-74
2022/10/22 10:26:03;;;;;;;8.37;2.50;;;;;;;15.46;100.00;101264.34;5266503;28;20032;-73
2022/10/22 10:28:45;;;;;;;14.07;2.53;;;;;;;15.51;100.00;101273.72;5281104;28;20029;-73
2022/10/22 10:31:25;;;;;;;9.33;2.13;;;;;;;15.63;100.00;101277.25;5282901;28;20705;-75
2022/10/22 10:34:20;;;;;;;9.60;2.27;;;;;;;15.68;100.00;101281.25;5275554;28;20401;-75
2022/10/22 10:37:22;;;;;;;8.67;2.80;;;;;;;15.73;100.00;101272.97;5278765;28;20387;-76
2022/10/22 10:40:22;;;;;;;11.33;2.40;;;;;;;15.83;100.00;101278.41;5250690;28;20027;-77
2022/10/22 10:43:05;;;;;;;11.43;2.77;;;;;;;15.82;100.00;101277.56;5260810;28;20028;-73
2022/10/22 10:46:01;;;;;;;11.43;3.17;;;;;;;16.03;100.00;101282.19;5286632;28;20399;-74
2022/10/22 10:48:35;;;;;;;12.17;3.17;;;;;;;16.05;100.00;101282.94;5262066;28;20551;-73
2022/10/22 10:51:23;;;;;;;9.57;2.22;;;;;;;16.17;100.00;101275.00;5280386;28;20071;-72
2022/10/22 10:54:13;;;;;;;9.60;3.10;;;;;;;16.38;100.00;101282.22;5262062;28;20410;-72
2022/10/22 10:57:22;;;;;;;12.47;3.27;;;;;;;16.59;100.00;101290.28;5284211;28;20105;-74
2022/10/22 11:00:03;;;;;;;15.77;2.97;;;;;;;16.50;100.00;101278.63;5271580;28;20036;-71
2022/10/22 11:02:56;;;;;;;13.10;3.67;;;;;;;16.54;100.00;101285.38;5283713;28;20056;-74
2022/10/22 11:06:07;;;;;;;9.30;2.43;;;;;;;16.49;100.00;101268.19;5290011;28;20055;-72
2022/10/22 11:09:02;;;;;;;10.93;3.07;;;;;;;16.62;100.00;101279.47;5263670;28;20115;-71
2022/10/22 11:11:47;;;;;;;10.77;2.80;;;;;;;16.63;100.00;101273.22;5286051;28;20500;-73
2022/10/22 11:14:25;;;;;;;9.13;2.30;;;;;;;16.71;100.00;101272.59;5263660;28;20036;-74
2022/10/22 11:17:10;;;;;;;8.60;2.30;;;;;;;16.89;100.00;101285.34;5282058;28;20032;-75
2022/10/22 11:19:55;;;;;;;13.60;2.80;;;;;;;16.90;100.00;101281.72;5275339;28;20028;-72
2022/10/22 11:22:37;;;;;;;11.43;2.47;;;;;;;16.93;100.00;101287.59;5270841;28;20130;-71
2022/10/22 11:25:17;;;;;;;11.37;2.43;;;;;;;16.90;100.00;101287.84;5291855;28;20044;-73
2022/10/22 11:28:10;;;;;;;10.40;2.73;;;;;;;16.89;100.00;101290.63;5262286;28;20027;-73
2022/10/22 11:30:44;;;;;;;15.70;3.00;;;;;;;16.98;100.00;101284.59;5236781;28;20039;-74
2022/10/22 11:33:20;;;;;;;14.83;4.37;;;;;;;16.96;100.00;101283.03;5277934;28;20060;-76
2022/10/22 11:35:52;;;;;;;10.33;2.40;;;;;;;17.02;100.00;101274.59;5275747;28;20024;-76
2022/10/22 11:38:25;;;;;;;10.63;2.30;;;;;;;17.07;100.00;101275.06;5278691;28;20432;-73
2022/10/22 11:41:04;;;;;;;13.37;2.77;;;;;;;17.17;100.00;101268.09;5258229;28;20518;-72
2022/10/22 11:43:54;;;;;;;11.13;3.23;;;;;;;17.21;100.00;101262.56;5273768;28;20056;-72
2022/10/22 11:46:45;;;;;;;11.80;2.90;;;;;;;17.14;100.00;101270.97;5274812;28;20052;-76
2022/10/22 11:49:22;;;;;;;15.60;2.77;;;;;;;17.11;100.00;101273.88;5251380;28;20106;-73
2022/10/22 11:52:27;;;;;;;10.97;2.33;;;;;;;17.10;100.00;101277.50;5281523;28;20017;-74
2022/10/22 11:55:01;;;;;;;11.70;2.60;;;;;;;16.99;100.00;101273.03;5257755;28;20066;-73